sensor_id;sensor_type;location;lat;lon;timestamp;temperature;humidity
39969;DHT22;25648;47.808;19.004;2022-11-04T00:01:45;18.30;67.80
39969;DHT22;25648;47.808;19.004;2022-11-04T00:04:12;18.40;67.40
39969;DHT22;25648;47.808;19.004;2022-11-04T00:06:39;18.40;67.70
39969;DHT22;25648;47.808;19.004;2022-11-04T00:09:07;18.50;67.00
39969;DHT22;25648;47.808;19.004;2022-11-04T00:11:33;18.60;66.70
39969;DHT22;25648;47.808;19.004;2022-11-04T00:14:18;18.80;66.30
39969;DHT22;25648;47.808;19.004;2022-11-04T00:16:44;18.40;66.50
39969;DHT22;25648;47.808;19.004;2022-11-04T00:19:29;18.30;68.40
39969;DHT22;25648;47.808;19.004;2022-11-04T00:22:14;17.90;68.00
39969;DHT22;25648;47.808;19.004;2022-11-04T00:24:59;17.00;70.80
39969;DHT22;25648;47.808;19.004;2022-11-04T00:27:43;16.80;72.00
39969;DHT22;25648;47.808;19.004;2022-11-04T00:30:27;16.20;74.00
39969;DHT22;25648;47.808;19.004;2022-11-04T00:32:52;16.00;74.60
39969;DHT22;25648;47.808;19.004;2022-11-04T00:35:36;16.50;74.10
39969;DHT22;25648;47.808;19.004;2022-11-04T00:38:02;17.20;72.10
39969;DHT22;25648;47.808;19.004;2022-11-04T00:40:28;17.70;70.20
39969;DHT22;25648;47.808;19.004;2022-11-04T00:42:53;18.20;69.00
39969;DHT22;25648;47.808;19.004;2022-11-04T00:45:19;18.60;67.70
39969;DHT22;25648;47.808;19.004;2022-11-04T00:47:45;18.90;67.10
39969;DHT22;25648;47.808;19.004;2022-11-04T00:50:10;19.00;66.90
39969;DHT22;25648;47.808;19.004;2022-11-04T00:52:36;19.10;66.40
39969;DHT22;25648;47.808;19.004;2022-11-04T00:55:02;19.30;66.00
39969;DHT22;25648;47.808;19.004;2022-11-04T00:57:28;19.30;65.40
39969;DHT22;25648;47.808;19.004;2022-11-04T00:59:53;19.20;66.30
39969;DHT22;25648;47.808;19.004;2022-11-04T01:02:19;19.30;65.80
39969;DHT22;25648;47.808;19.004;2022-11-04T01:04:46;19.20;66.00
39969;DHT22;25648;47.808;19.004;2022-11-04T01:07:11;19.40;65.60
39969;DHT22;25648;47.808;19.004;2022-11-04T01:09:37;18.90;66.60
39969;DHT22;25648;47.808;19.004;2022-11-04T01:12:04;18.70;67.00
39969;DHT22;25648;47.808;19.004;2022-11-04T01:14:30;18.50;67.50
39969;DHT22;25648;47.808;19.004;2022-11-04T01:16:55;18.30;68.70
39969;DHT22;25648;47.808;19.004;2022-11-04T01:19:21;18.10;69.00
39969;DHT22;25648;47.808;19.004;2022-11-04T01:21:51;17.90;69.10
39969;DHT22;25648;47.808;19.004;2022-11-04T01:24:24;17.80;69.50
39969;DHT22;25648;47.808;19.004;2022-11-04T01:26:50;17.40;71.30
39969;DHT22;25648;47.808;19.004;2022-11-04T01:29:15;17.70;70.80
39969;DHT22;25648;47.808;19.004;2022-11-04T01:31:41;18.20;69.70
39969;DHT22;25648;47.808;19.004;2022-11-04T01:34:08;18.70;68.00
39969;DHT22;25648;47.808;19.004;2022-11-04T01:36:34;19.00;67.00
39969;DHT22;25648;47.808;19.004;2022-11-04T01:39:01;19.30;66.20
39969;DHT22;25648;47.808;19.004;2022-11-04T01:41:29;19.20;66.50
39969;DHT22;25648;47.808;19.004;2022-11-04T01:44:01;19.10;66.90
39969;DHT22;25648;47.808;19.004;2022-11-04T01:49:03;19.30;66.00
39969;DHT22;25648;47.808;19.004;2022-11-04T01:51:32;19.30;65.60
39969;DHT22;25648;47.808;19.004;2022-11-04T01:54:00;18.60;67.60
39969;DHT22;25648;47.808;19.004;2022-11-04T01:56:27;17.90;69.30
39969;DHT22;25648;47.808;19.004;2022-11-04T01:58:56;17.60;70.50
39969;DHT22;25648;47.808;19.004;2022-11-04T02:01:22;17.20;71.20
39969;DHT22;25648;47.808;19.004;2022-11-04T02:04:06;17.00;72.60
39969;DHT22;25648;47.808;19.004;2022-11-04T02:06:59;17.30;72.00
39969;DHT22;25648;47.808;19.004;2022-11-04T02:09:28;17.40;70.90
39969;DHT22;25648;47.808;19.004;2022-11-04T02:11:54;17.90;70.00
39969;DHT22;25648;47.808;19.004;2022-11-04T02:14:39;18.30;69.00
39969;DHT22;25648;47.808;19.004;2022-11-04T02:23:24;18.40;67.90
39969;DHT22;25648;47.808;19.004;2022-11-04T02:26:18;17.50;69.60
39969;DHT22;25648;47.808;19.004;2022-11-04T02:32:17;16.50;74.50
39969;DHT22;25648;47.808;19.004;2022-11-04T02:35:05;17.20;72.60
39969;DHT22;25648;47.808;19.004;2022-11-04T02:37:42;17.50;71.00
39969;DHT22;25648;47.808;19.004;2022-11-04T02:45:43;16.40;74.20
39969;DHT22;25648;47.808;19.004;2022-11-04T02:48:40;16.50;73.90
39969;DHT22;25648;47.808;19.004;2022-11-04T02:54:09;16.60;72.50
39969;DHT22;25648;47.808;19.004;2022-11-04T02:56:39;16.10;73.80
39969;DHT22;25648;47.808;19.004;2022-11-04T02:59:51;15.90;75.30
39969;DHT22;25648;47.808;19.004;2022-11-04T03:01:59;15.50;75.80
39969;DHT22;25648;47.808;19.004;2022-11-04T03:04:31;15.50;76.60
39969;DHT22;25648;47.808;19.004;2022-11-04T03:06:59;15.60;76.00
39969;DHT22;25648;47.808;19.004;2022-11-04T03:09:29;15.90;75.90
39969;DHT22;25648;47.808;19.004;2022-11-04T03:12:01;16.30;74.00
39969;DHT22;25648;47.808;19.004;2022-11-04T03:14:38;15.60;75.40
39969;DHT22;25648;47.808;19.004;2022-11-04T03:17:09;15.40;76.20
39969;DHT22;25648;47.808;19.004;2022-11-04T03:19:56;15.20;77.90
39969;DHT22;25648;47.808;19.004;2022-11-04T03:22:25;15.10;77.20
39969;DHT22;25648;47.808;19.004;2022-11-04T03:24:52;15.60;76.60
39969;DHT22;25648;47.808;19.004;2022-11-04T03:30:06;16.30;73.90
39969;DHT22;25648;47.808;19.004;2022-11-04T03:32:44;16.70;72.00
39969;DHT22;25648;47.808;19.004;2022-11-04T03:35:13;16.50;73.60
39969;DHT22;25648;47.808;19.004;2022-11-04T03:37:41;16.20;73.50
39969;DHT22;25648;47.808;19.004;2022-11-04T03:40:07;16.10;74.00
39969;DHT22;25648;47.808;19.004;2022-11-04T03:42:42;16.60;73.00
39969;DHT22;25648;47.808;19.004;2022-11-04T03:45:10;17.20;71.10
39969;DHT22;25648;47.808;19.004;2022-11-04T03:47:37;17.50;69.80
39969;DHT22;25648;47.808;19.004;2022-11-04T03:50:26;17.50;69.10
39969;DHT22;25648;47.808;19.004;2022-11-04T03:52:53;17.50;69.30
39969;DHT22;25648;47.808;19.004;2022-11-04T03:55:27;17.20;70.10
39969;DHT22;25648;47.808;19.004;2022-11-04T03:58:09;17.10;70.70
39969;DHT22;25648;47.808;19.004;2022-11-04T04:00:50;16.70;71.40
39969;DHT22;25648;47.808;19.004;2022-11-04T04:03:20;16.60;70.90
39969;DHT22;25648;47.808;19.004;2022-11-04T04:06:02;16.30;71.90
39969;DHT22;25648;47.808;19.004;2022-11-04T04:11:18;16.00;72.80
39969;DHT22;25648;47.808;19.004;2022-11-04T04:16:46;16.80;70.60
39969;DHT22;25648;47.808;19.004;2022-11-04T04:19:17;16.90;70.10
39969;DHT22;25648;47.808;19.004;2022-11-04T04:21:50;16.60;70.70
39969;DHT22;25648;47.808;19.004;2022-11-04T04:24:19;16.80;70.40
39969;DHT22;25648;47.808;19.004;2022-11-04T04:27:05;16.60;71.20
39969;DHT22;25648;47.808;19.004;2022-11-04T04:29:50;16.60;70.90
39969;DHT22;25648;47.808;19.004;2022-11-04T04:32:17;16.80;70.90
39969;DHT22;25648;47.808;19.004;2022-11-04T04:34:44;17.30;69.90
39969;DHT22;25648;47.808;19.004;2022-11-04T04:37:24;17.70;67.60
39969;DHT22;25648;47.808;19.004;2022-11-04T04:39:53;17.60;68.00
39969;DHT22;25648;47.808;19.004;2022-11-04T04:42:39;17.10;69.30
39969;DHT22;25648;47.808;19.004;2022-11-04T04:45:48;16.70;70.40
39969;DHT22;25648;47.808;19.004;2022-11-04T04:48:15;16.60;71.50
39969;DHT22;25648;47.808;19.004;2022-11-04T04:50:45;16.60;71.40
39969;DHT22;25648;47.808;19.004;2022-11-04T04:53:14;16.20;72.20
39969;DHT22;25648;47.808;19.004;2022-11-04T04:55:39;15.40;74.60
39969;DHT22;25648;47.808;19.004;2022-11-04T04:58:05;15.40;74.20
39969;DHT22;25648;47.808;19.004;2022-11-04T05:00:31;15.30;74.50
39969;DHT22;25648;47.808;19.004;2022-11-04T05:02:58;15.60;74.70
39969;DHT22;25648;47.808;19.004;2022-11-04T05:05:24;16.10;72.00
39969;DHT22;25648;47.808;19.004;2022-11-04T05:07:50;15.90;72.60
39969;DHT22;25648;47.808;19.004;2022-11-04T05:10:17;15.80;72.60
39969;DHT22;25648;47.808;19.004;2022-11-04T05:12:43;15.80;73.70
39969;DHT22;25648;47.808;19.004;2022-11-04T05:15:28;15.60;73.20
39969;DHT22;25648;47.808;19.004;2022-11-04T05:17:55;15.30;74.90
39969;DHT22;25648;47.808;19.004;2022-11-04T05:20:21;15.40;75.30
39969;DHT22;25648;47.808;19.004;2022-11-04T05:22:47;16.20;72.80
39969;DHT22;25648;47.808;19.004;2022-11-04T05:25:12;16.30;71.10
39969;DHT22;25648;47.808;19.004;2022-11-04T05:27:38;15.80;73.40
39969;DHT22;25648;47.808;19.004;2022-11-04T05:30:04;15.70;73.80
39969;DHT22;25648;47.808;19.004;2022-11-04T05:32:30;16.00;71.90
39969;DHT22;25648;47.808;19.004;2022-11-04T05:34:56;15.80;73.30
39969;DHT22;25648;47.808;19.004;2022-11-04T05:37:22;15.70;73.10
39969;DHT22;25648;47.808;19.004;2022-11-04T05:39:48;15.30;75.40
39969;DHT22;25648;47.808;19.004;2022-11-04T05:42:13;15.40;74.10
39969;DHT22;25648;47.808;19.004;2022-11-04T05:44:42;14.90;75.60
39969;DHT22;25648;47.808;19.004;2022-11-04T05:47:08;14.60;76.40
39969;DHT22;25648;47.808;19.004;2022-11-04T05:49:33;14.30;77.10
39969;DHT22;25648;47.808;19.004;2022-11-04T05:51:59;14.00;78.10
39969;DHT22;25648;47.808;19.004;2022-11-04T05:54:25;14.40;77.30
39969;DHT22;25648;47.808;19.004;2022-11-04T05:56:54;14.30;77.10
39969;DHT22;25648;47.808;19.004;2022-11-04T05:59:19;14.40;77.30
39969;DHT22;25648;47.808;19.004;2022-11-04T06:01:45;14.40;77.30
39969;DHT22;25648;47.808;19.004;2022-11-04T06:04:17;14.40;77.10
39969;DHT22;25648;47.808;19.004;2022-11-04T06:06:44;14.20;77.10
39969;DHT22;25648;47.808;19.004;2022-11-04T06:09:11;14.10;78.10
39969;DHT22;25648;47.808;19.004;2022-11-04T06:11:37;14.40;78.00
39969;DHT22;25648;47.808;19.004;2022-11-04T06:14:04;14.80;76.10
39969;DHT22;25648;47.808;19.004;2022-11-04T06:16:30;14.80;76.00
39969;DHT22;25648;47.808;19.004;2022-11-04T06:18:56;14.80;76.10
39969;DHT22;25648;47.808;19.004;2022-11-04T06:23:51;15.30;75.70
39969;DHT22;25648;47.808;19.004;2022-11-04T06:26:17;16.00;72.80
39969;DHT22;25648;47.808;19.004;2022-11-04T06:28:43;15.80;73.20
39969;DHT22;25648;47.808;19.004;2022-11-04T06:31:11;15.90;72.80
39969;DHT22;25648;47.808;19.004;2022-11-04T06:33:37;16.10;72.40
39969;DHT22;25648;47.808;19.004;2022-11-04T06:36:04;15.90;73.50
39969;DHT22;25648;47.808;19.004;2022-11-04T06:38:32;16.10;71.70
39969;DHT22;25648;47.808;19.004;2022-11-04T06:41:03;15.90;71.80
39969;DHT22;25648;47.808;19.004;2022-11-04T06:43:29;15.60;72.60
39969;DHT22;25648;47.808;19.004;2022-11-04T06:45:56;15.10;74.40
39969;DHT22;25648;47.808;19.004;2022-11-04T06:48:22;15.00;74.70
39969;DHT22;25648;47.808;19.004;2022-11-04T06:50:49;15.40;74.60
39969;DHT22;25648;47.808;19.004;2022-11-04T06:53:15;16.00;73.40
39969;DHT22;25648;47.808;19.004;2022-11-04T06:55:41;16.20;71.90
39969;DHT22;25648;47.808;19.004;2022-11-04T06:58:07;16.10;72.20
39969;DHT22;25648;47.808;19.004;2022-11-04T07:00:34;15.70;72.80
39969;DHT22;25648;47.808;19.004;2022-11-04T07:02:59;15.50;74.70
39969;DHT22;25648;47.808;19.004;2022-11-04T07:05:25;16.20;72.40
39969;DHT22;25648;47.808;19.004;2022-11-04T07:07:50;16.60;70.60
39969;DHT22;25648;47.808;19.004;2022-11-04T07:10:16;16.90;69.80
39969;DHT22;25648;47.808;19.004;2022-11-04T07:12:42;16.70;70.10
39969;DHT22;25648;47.808;19.004;2022-11-04T07:15:09;16.60;70.10
39969;DHT22;25648;47.808;19.004;2022-11-04T07:17:35;16.80;69.50
39969;DHT22;25648;47.808;19.004;2022-11-04T07:20:01;16.70;70.80
39969;DHT22;25648;47.808;19.004;2022-11-04T07:22:27;16.10;71.90
39969;DHT22;25648;47.808;19.004;2022-11-04T07:24:53;15.90;72.30
39969;DHT22;25648;47.808;19.004;2022-11-04T07:27:18;15.70;73.50
39969;DHT22;25648;47.808;19.004;2022-11-04T07:29:44;15.80;73.60
39969;DHT22;25648;47.808;19.004;2022-11-04T07:32:10;15.90;72.90
39969;DHT22;25648;47.808;19.004;2022-11-04T07:34:35;15.50;74.70
39969;DHT22;25648;47.808;19.004;2022-11-04T07:37:01;15.70;72.50
39969;DHT22;25648;47.808;19.004;2022-11-04T07:39:27;15.40;74.10
39969;DHT22;25648;47.808;19.004;2022-11-04T07:41:52;14.70;76.70
39969;DHT22;25648;47.808;19.004;2022-11-04T07:44:18;14.70;77.00
39969;DHT22;25648;47.808;19.004;2022-11-04T07:46:47;15.30;76.20
39969;DHT22;25648;47.808;19.004;2022-11-04T07:49:13;15.60;73.60
39969;DHT22;25648;47.808;19.004;2022-11-04T07:51:38;15.60;73.20
39969;DHT22;25648;47.808;19.004;2022-11-04T07:54:04;15.40;73.70
39969;DHT22;25648;47.808;19.004;2022-11-04T07:56:30;15.60;74.30
39969;DHT22;25648;47.808;19.004;2022-11-04T07:58:56;15.70;73.50
39969;DHT22;25648;47.808;19.004;2022-11-04T08:01:22;15.80;73.10
39969;DHT22;25648;47.808;19.004;2022-11-04T08:03:49;16.00;72.70
39969;DHT22;25648;47.808;19.004;2022-11-04T08:06:15;16.20;72.40
39969;DHT22;25648;47.808;19.004;2022-11-04T08:08:42;16.20;71.20
39969;DHT22;25648;47.808;19.004;2022-11-04T08:11:10;15.90;72.00
39969;DHT22;25648;47.808;19.004;2022-11-04T08:13:37;15.20;74.10
39969;DHT22;25648;47.808;19.004;2022-11-04T08:16:05;14.90;76.30
39969;DHT22;25648;47.808;19.004;2022-11-04T08:18:32;14.60;76.50
39969;DHT22;25648;47.808;19.004;2022-11-04T08:20:58;14.80;76.30
39969;DHT22;25648;47.808;19.004;2022-11-04T08:23:24;15.10;75.00
39969;DHT22;25648;47.808;19.004;2022-11-04T08:25:50;15.00;75.50
39969;DHT22;25648;47.808;19.004;2022-11-04T08:28:15;15.00;75.10
39969;DHT22;25648;47.808;19.004;2022-11-04T08:33:25;14.40;77.50
39969;DHT22;25648;47.808;19.004;2022-11-04T08:35:52;14.40;78.10
39969;DHT22;25648;47.808;19.004;2022-11-04T08:38:18;14.80;76.20
39969;DHT22;25648;47.808;19.004;2022-11-04T08:40:44;15.10;75.60
39969;DHT22;25648;47.808;19.004;2022-11-04T08:43:10;15.50;75.70
39969;DHT22;25648;47.808;19.004;2022-11-04T08:45:42;15.90;73.10
39969;DHT22;25648;47.808;19.004;2022-11-04T08:48:12;15.70;73.30
39969;DHT22;25648;47.808;19.004;2022-11-04T08:50:38;15.60;73.20
39969;DHT22;25648;47.808;19.004;2022-11-04T08:53:04;15.70;73.70
39969;DHT22;25648;47.808;19.004;2022-11-04T08:55:31;16.00;71.80
39969;DHT22;25648;47.808;19.004;2022-11-04T08:57:58;15.60;72.90
39969;DHT22;25648;47.808;19.004;2022-11-04T09:00:24;15.40;74.70
39969;DHT22;25648;47.808;19.004;2022-11-04T09:02:50;15.00;74.00
39969;DHT22;25648;47.808;19.004;2022-11-04T09:05:15;15.00;75.10
39969;DHT22;25648;47.808;19.004;2022-11-04T09:07:41;15.00;74.40
39969;DHT22;25648;47.808;19.004;2022-11-04T09:10:09;15.10;75.00
39969;DHT22;25648;47.808;19.004;2022-11-04T09:12:35;15.80;73.00
39969;DHT22;25648;47.808;19.004;2022-11-04T09:15:04;16.30;70.70
39969;DHT22;25648;47.808;19.004;2022-11-04T09:17:30;16.20;70.70
39969;DHT22;25648;47.808;19.004;2022-11-04T09:19:56;16.20;71.20
39969;DHT22;25648;47.808;19.004;2022-11-04T09:22:22;16.00;72.00
39969;DHT22;25648;47.808;19.004;2022-11-04T09:24:48;16.20;71.50
39969;DHT22;25648;47.808;19.004;2022-11-04T09:27:14;16.40;70.90
39969;DHT22;25648;47.808;19.004;2022-11-04T09:29:40;16.50;70.40
39969;DHT22;25648;47.808;19.004;2022-11-04T09:32:06;16.70;69.30
39969;DHT22;25648;47.808;19.004;2022-11-04T09:34:32;16.40;70.50
39969;DHT22;25648;47.808;19.004;2022-11-04T09:36:58;16.90;69.30
39969;DHT22;25648;47.808;19.004;2022-11-04T09:39:25;17.20;68.30
39969;DHT22;25648;47.808;19.004;2022-11-04T09:41:56;17.00;68.70
39969;DHT22;25648;47.808;19.004;2022-11-04T09:46:56;16.40;70.70
39969;DHT22;25648;47.808;19.004;2022-11-04T09:49:24;17.10;68.70
39969;DHT22;25648;47.808;19.004;2022-11-04T09:51:52;16.90;68.40
39969;DHT22;25648;47.808;19.004;2022-11-04T09:54:24;16.50;70.90
39969;DHT22;25648;47.808;19.004;2022-11-04T09:56:51;16.20;72.20
39969;DHT22;25648;47.808;19.004;2022-11-04T09:59:36;16.20;73.10
39969;DHT22;25648;47.808;19.004;2022-11-04T10:04:57;16.40;72.60
39969;DHT22;25648;47.808;19.004;2022-11-04T10:07:46;16.80;70.90
39969;DHT22;25648;47.808;19.004;2022-11-04T10:10:39;16.50;71.70
39969;DHT22;25648;47.808;19.004;2022-11-04T10:24:34;15.00;76.10
39969;DHT22;25648;47.808;19.004;2022-11-04T10:26:58;15.00;76.80
39969;DHT22;25648;47.808;19.004;2022-11-04T10:29:36;15.20;75.50
39969;DHT22;25648;47.808;19.004;2022-11-04T10:32:20;15.20;76.00
39969;DHT22;25648;47.808;19.004;2022-11-04T10:37:17;14.90;77.30
39969;DHT22;25648;47.808;19.004;2022-11-04T10:39:45;15.30;76.50
39969;DHT22;25648;47.808;19.004;2022-11-04T10:42:15;15.10;77.20
39969;DHT22;25648;47.808;19.004;2022-11-04T10:44:44;15.40;75.40
39969;DHT22;25648;47.808;19.004;2022-11-04T10:47:42;15.50;75.30
39969;DHT22;25648;47.808;19.004;2022-11-04T10:50:23;15.20;76.00
39969;DHT22;25648;47.808;19.004;2022-11-04T10:52:52;15.20;77.00
39969;DHT22;25648;47.808;19.004;2022-11-04T10:55:36;15.70;74.70
39969;DHT22;25648;47.808;19.004;2022-11-04T10:58:16;16.10;74.50
39969;DHT22;25648;47.808;19.004;2022-11-04T11:00:42;16.40;73.40
39969;DHT22;25648;47.808;19.004;2022-11-04T11:03:46;16.80;72.20
39969;DHT22;25648;47.808;19.004;2022-11-04T11:06:13;17.40;69.80
39969;DHT22;25648;47.808;19.004;2022-11-04T11:08:40;17.70;69.00
39969;DHT22;25648;47.808;19.004;2022-11-04T11:11:07;17.00;70.20
39969;DHT22;25648;47.808;19.004;2022-11-04T11:13:39;17.00;71.10
39969;DHT22;25648;47.808;19.004;2022-11-04T11:16:08;17.20;70.40
39969;DHT22;25648;47.808;19.004;2022-11-04T11:18:36;17.50;70.30
39969;DHT22;25648;47.808;19.004;2022-11-04T11:21:15;17.70;68.50
39969;DHT22;25648;47.808;19.004;2022-11-04T11:23:47;17.40;69.90
39969;DHT22;25648;47.808;19.004;2022-11-04T11:26:17;17.10;70.80
39969;DHT22;25648;47.808;19.004;2022-11-04T11:28:52;17.60;69.50
39969;DHT22;25648;47.808;19.004;2022-11-04T11:31:21;18.00;68.10
39969;DHT22;25648;47.808;19.004;2022-11-04T11:33:54;18.30;67.60
39969;DHT22;25648;47.808;19.004;2022-11-04T11:36:27;18.60;66.80
39969;DHT22;25648;47.808;19.004;2022-11-04T11:39:01;18.70;66.00
39969;DHT22;25648;47.808;19.004;2022-11-04T11:41:29;18.80;66.00
39969;DHT22;25648;47.808;19.004;2022-11-04T11:47:05;18.70;65.60
39969;DHT22;25648;47.808;19.004;2022-11-04T11:49:35;18.40;66.50
39969;DHT22;25648;47.808;19.004;2022-11-04T11:54:49;18.70;66.10
39969;DHT22;25648;47.808;19.004;2022-11-04T11:57:40;18.80;65.80
39969;DHT22;25648;47.808;19.004;2022-11-04T12:00:11;19.00;65.30
39969;DHT22;25648;47.808;19.004;2022-11-04T12:02:59;19.10;65.00
39969;DHT22;25648;47.808;19.004;2022-11-04T12:05:34;19.20;64.60
39969;DHT22;25648;47.808;19.004;2022-11-04T12:11:04;19.20;65.00
39969;DHT22;25648;47.808;19.004;2022-11-04T12:13:56;19.30;64.70
39969;DHT22;25648;47.808;19.004;2022-11-04T12:16:40;19.30;64.70
39969;DHT22;25648;47.808;19.004;2022-11-04T12:19:37;19.40;64.50
39969;DHT22;25648;47.808;19.004;2022-11-04T12:25:13;19.10;65.00
39969;DHT22;25648;47.808;19.004;2022-11-04T12:30:29;19.20;64.90
39969;DHT22;25648;47.808;19.004;2022-11-04T13:02:24;19.50;64.10
39969;DHT22;25648;47.808;19.004;2022-11-04T13:13:14;19.70;63.70
39969;DHT22;25648;47.808;19.004;2022-11-04T13:15:47;19.50;64.20
39969;DHT22;25648;47.808;19.004;2022-11-04T13:18:18;19.50;64.30
39969;DHT22;25648;47.808;19.004;2022-11-04T13:20:57;19.50;64.60
39969;DHT22;25648;47.808;19.004;2022-11-04T13:26:15;19.20;64.50
39969;DHT22;25648;47.808;19.004;2022-11-04T13:28:43;19.10;65.30
39969;DHT22;25648;47.808;19.004;2022-11-04T13:31:33;19.30;65.20
39969;DHT22;25648;47.808;19.004;2022-11-04T13:36:50;19.40;64.70
39969;DHT22;25648;47.808;19.004;2022-11-04T13:39:25;19.40;64.60
39969;DHT22;25648;47.808;19.004;2022-11-04T13:44:28;19.10;65.60
39969;DHT22;25648;47.808;19.004;2022-11-04T13:46:58;19.00;65.70
39969;DHT22;25648;47.808;19.004;2022-11-04T13:49:27;19.10;65.90
39969;DHT22;25648;47.808;19.004;2022-11-04T13:54:39;19.40;64.90
39969;DHT22;25648;47.808;19.004;2022-11-04T13:57:17;19.50;64.90
39969;DHT22;25648;47.808;19.004;2022-11-04T14:18:42;19.00;65.90
39969;DHT22;25648;47.808;19.004;2022-11-04T14:21:14;19.00;65.90
39969;DHT22;25648;47.808;19.004;2022-11-04T14:23:52;19.10;65.80
39969;DHT22;25648;47.808;19.004;2022-11-04T14:26:21;19.10;65.50
39969;DHT22;25648;47.808;19.004;2022-11-04T14:29:07;18.90;66.00
39969;DHT22;25648;47.808;19.004;2022-11-04T14:31:39;18.70;66.10
39969;DHT22;25648;47.808;19.004;2022-11-04T14:34:06;18.70;66.10
39969;DHT22;25648;47.808;19.004;2022-11-04T14:36:38;18.70;66.30
39969;DHT22;25648;47.808;19.004;2022-11-04T14:44:16;18.80;66.70
39969;DHT22;25648;47.808;19.004;2022-11-04T14:46:47;18.90;66.40
39969;DHT22;25648;47.808;19.004;2022-11-04T14:52:34;19.20;65.30
39969;DHT22;25648;47.808;19.004;2022-11-04T14:57:38;19.20;65.30
39969;DHT22;25648;47.808;19.004;2022-11-04T15:00:25;19.20;65.40
39969;DHT22;25648;47.808;19.004;2022-11-04T15:05:36;19.10;65.60
39969;DHT22;25648;47.808;19.004;2022-11-04T15:08:30;18.90;65.90
39969;DHT22;25648;47.808;19.004;2022-11-04T15:11:07;18.80;66.30
39969;DHT22;25648;47.808;19.004;2022-11-04T15:13:49;19.10;65.70
39969;DHT22;25648;47.808;19.004;2022-11-04T15:16:27;19.40;65.20
39969;DHT22;25648;47.808;19.004;2022-11-04T15:18:55;19.60;64.60
39969;DHT22;25648;47.808;19.004;2022-11-04T15:21:21;19.70;64.50
39969;DHT22;25648;47.808;19.004;2022-11-04T15:23:52;19.60;64.50
39969;DHT22;25648;47.808;19.004;2022-11-04T15:28:47;19.80;63.90
39969;DHT22;25648;47.808;19.004;2022-11-04T15:31:19;19.90;63.50
39969;DHT22;25648;47.808;19.004;2022-11-04T15:33:53;19.90;63.80
39969;DHT22;25648;47.808;19.004;2022-11-04T15:38:51;19.90;63.90
39969;DHT22;25648;47.808;19.004;2022-11-04T15:41:20;19.80;64.40
39969;DHT22;25648;47.808;19.004;2022-11-04T15:44:16;19.80;63.90
39969;DHT22;25648;47.808;19.004;2022-11-04T15:46:50;19.70;64.40
39969;DHT22;25648;47.808;19.004;2022-11-04T15:49:34;19.70;64.50
39969;DHT22;25648;47.808;19.004;2022-11-04T15:52:05;19.40;65.30
39969;DHT22;25648;47.808;19.004;2022-11-04T15:54:35;19.40;65.30
39969;DHT22;25648;47.808;19.004;2022-11-04T15:57:04;19.30;65.30
39969;DHT22;25648;47.808;19.004;2022-11-04T15:59:37;19.30;65.60
39969;DHT22;25648;47.808;19.004;2022-11-04T16:02:04;19.30;65.40
39969;DHT22;25648;47.808;19.004;2022-11-04T16:04:39;19.30;65.50
39969;DHT22;25648;47.808;19.004;2022-11-04T16:09:47;19.10;66.20
39969;DHT22;25648;47.808;19.004;2022-11-04T16:12:16;19.10;66.00
39969;DHT22;25648;47.808;19.004;2022-11-04T16:14:53;19.20;66.00
39969;DHT22;25648;47.808;19.004;2022-11-04T16:17:19;19.10;66.00
39969;DHT22;25648;47.808;19.004;2022-11-04T16:19:54;19.30;66.10
39969;DHT22;25648;47.808;19.004;2022-11-04T16:22:29;19.40;65.70
39969;DHT22;25648;47.808;19.004;2022-11-04T16:24:58;19.50;65.80
39969;DHT22;25648;47.808;19.004;2022-11-04T16:27:33;19.60;65.20
39969;DHT22;25648;47.808;19.004;2022-11-04T16:32:45;19.20;65.90
39969;DHT22;25648;47.808;19.004;2022-11-04T16:35:23;19.00;66.20
39969;DHT22;25648;47.808;19.004;2022-11-04T16:37:50;19.10;66.30
39969;DHT22;25648;47.808;19.004;2022-11-04T16:40:17;18.90;66.60
39969;DHT22;25648;47.808;19.004;2022-11-04T16:42:43;19.00;66.70
39969;DHT22;25648;47.808;19.004;2022-11-04T16:45:22;19.00;66.70
39969;DHT22;25648;47.808;19.004;2022-11-04T16:47:48;18.90;67.10
39969;DHT22;25648;47.808;19.004;2022-11-04T16:50:15;18.90;67.30
39969;DHT22;25648;47.808;19.004;2022-11-04T16:52:41;19.00;66.70
39969;DHT22;25648;47.808;19.004;2022-11-04T16:55:08;19.10;66.70
39969;DHT22;25648;47.808;19.004;2022-11-04T16:57:35;19.00;66.40
39969;DHT22;25648;47.808;19.004;2022-11-04T17:00:01;19.00;67.10
39969;DHT22;25648;47.808;19.004;2022-11-04T17:02:29;18.90;67.20
39969;DHT22;25648;47.808;19.004;2022-11-04T17:04:58;18.80;67.60
39969;DHT22;25648;47.808;19.004;2022-11-04T17:07:24;18.70;67.60
39969;DHT22;25648;47.808;19.004;2022-11-04T17:09:49;18.60;67.90
39969;DHT22;25648;47.808;19.004;2022-11-04T17:12:15;18.70;68.10
39969;DHT22;25648;47.808;19.004;2022-11-04T17:14:41;18.90;67.30
39969;DHT22;25648;47.808;19.004;2022-11-04T17:17:08;19.20;66.90
39969;DHT22;25648;47.808;19.004;2022-11-04T17:19:34;19.40;66.10
39969;DHT22;25648;47.808;19.004;2022-11-04T17:22:01;19.50;66.20
39969;DHT22;25648;47.808;19.004;2022-11-04T17:24:28;19.70;65.60
39969;DHT22;25648;47.808;19.004;2022-11-04T17:26:54;19.60;65.60
39969;DHT22;25648;47.808;19.004;2022-11-04T17:29:20;19.60;65.90
39969;DHT22;25648;47.808;19.004;2022-11-04T17:31:45;19.60;65.70
39969;DHT22;25648;47.808;19.004;2022-11-04T17:34:11;19.50;66.00
39969;DHT22;25648;47.808;19.004;2022-11-04T17:36:37;19.50;66.00
39969;DHT22;25648;47.808;19.004;2022-11-04T17:39:03;19.70;66.00
39969;DHT22;25648;47.808;19.004;2022-11-04T17:41:28;19.70;65.50
39969;DHT22;25648;47.808;19.004;2022-11-04T17:44:12;19.60;66.00
39969;DHT22;25648;47.808;19.004;2022-11-04T17:46:38;19.60;65.70
39969;DHT22;25648;47.808;19.004;2022-11-04T17:49:10;19.60;66.40
39969;DHT22;25648;47.808;19.004;2022-11-04T17:51:38;19.60;66.00
39969;DHT22;25648;47.808;19.004;2022-11-04T17:54:04;19.70;65.60
39969;DHT22;25648;47.808;19.004;2022-11-04T17:56:30;19.80;65.30
39969;DHT22;25648;47.808;19.004;2022-11-04T17:58:58;20.00;65.30
39969;DHT22;25648;47.808;19.004;2022-11-04T18:01:25;20.10;64.90
39969;DHT22;25648;47.808;19.004;2022-11-04T18:03:53;20.10;64.70
39969;DHT22;25648;47.808;19.004;2022-11-04T18:06:20;20.00;65.00
39969;DHT22;25648;47.808;19.004;2022-11-04T18:08:46;19.80;66.10
39969;DHT22;25648;47.808;19.004;2022-11-04T18:11:13;19.90;65.50
39969;DHT22;25648;47.808;19.004;2022-11-04T18:13:59;20.00;65.30
39969;DHT22;25648;47.808;19.004;2022-11-04T18:16:24;20.00;65.20